createdAt,value
2019-01-25T00:04:01.461Z,41.23
2019-01-25T00:06:50.294Z,42.07
2019-01-25T00:09:39.126Z,47.50
2019-01-25T00:12:27.991Z,40.37
2019-01-25T00:15:16.846Z,43.10
2019-01-25T00:18:06.024Z,46.07
2019-01-25T00:20:55.930Z,41.27
2019-01-25T00:23:45.501Z,41.03
2019-01-25T00:26:34.345Z,42.50
2019-01-25T00:29:23.188Z,42.67
2019-01-25T00:32:12.066Z,36.67
2019-01-25T00:35:00.921Z,36.63
2019-01-25T00:37:49.731Z,40.60
2019-01-25T00:40:38.596Z,43.27
2019-01-25T00:46:36.812Z,39.73
2019-01-25T00:49:26.000Z,43.83
2019-01-25T00:52:14.831Z,39.37
2019-01-25T00:58:32.143Z,44.40
2019-01-25T01:01:21.031Z,40.47
2019-01-25T01:04:09.943Z,37.63
2019-01-25T01:06:52.134Z,43.77
2019-01-25T01:09:40.955Z,39.07
2019-01-25T01:12:29.856Z,38.80
2019-01-25T01:15:39.575Z,41.07
2019-01-25T01:18:28.479Z,42.93
2019-01-25T01:21:17.363Z,41.97
2019-01-25T01:24:06.356Z,39.80
2019-01-25T01:26:55.233Z,42.73
2019-01-25T01:29:44.135Z,39.90
2019-01-25T01:32:33.029Z,40.10
2019-01-25T01:35:21.925Z,43.43
2019-01-25T01:38:10.847Z,41.57
2019-01-25T01:40:59.730Z,46.85
2019-01-25T01:43:48.576Z,41.63
2019-01-25T01:46:37.486Z,39.57
2019-01-25T01:49:26.365Z,39.40
2019-01-25T01:52:15.216Z,42.83
2019-01-25T01:58:00.114Z,41.85
2019-01-25T02:00:49.041Z,36.13
2019-01-25T02:03:37.889Z,47.00
2019-01-25T02:06:19.805Z,42.60
2019-01-25T02:09:08.801Z,42.53
2019-01-25T02:15:33.372Z,47.55
2019-01-25T02:18:22.211Z,48.28
2019-01-25T02:21:11.100Z,44.00
2019-01-25T02:24:00.024Z,44.10
2019-01-25T02:26:48.891Z,41.37
2019-01-25T02:29:37.740Z,42.77
2019-01-25T02:32:26.741Z,44.30
2019-01-25T02:35:15.748Z,44.40
2019-01-25T02:38:04.651Z,36.57
2019-01-25T02:40:53.487Z,42.33
2019-01-25T02:43:42.315Z,44.03
2019-01-25T02:46:31.176Z,40.60
2019-01-25T02:49:19.991Z,39.70
2019-01-25T02:52:08.839Z,39.00
2019-01-25T02:54:57.722Z,37.53
2019-01-25T02:57:46.821Z,40.60
2019-01-25T03:00:35.649Z,41.27
2019-01-25T03:03:24.482Z,40.97
2019-01-25T03:06:06.591Z,44.67
2019-01-25T03:08:55.401Z,46.40
2019-01-25T03:11:44.231Z,39.77
2019-01-25T03:14:33.054Z,49.55
2019-01-25T03:17:21.881Z,42.20
2019-01-25T03:20:31.611Z,39.78
2019-01-25T03:23:20.468Z,42.53
2019-01-25T03:26:09.380Z,43.63
2019-01-25T03:28:58.194Z,38.73
2019-01-25T03:31:47.082Z,45.53
2019-01-25T03:34:35.947Z,40.17
2019-01-25T03:37:24.763Z,42.98
2019-01-25T03:40:34.529Z,42.37
2019-01-25T03:43:23.425Z,45.87
2019-01-25T03:46:12.404Z,46.07
2019-01-25T03:49:01.243Z,41.13
2019-01-25T03:51:50.049Z,43.90
2019-01-25T03:54:39.005Z,40.30
2019-01-25T03:57:27.866Z,45.50
2019-01-25T04:00:37.689Z,50.63
2019-01-25T04:03:26.519Z,50.23
2019-01-25T04:06:15.366Z,41.47
2019-01-25T04:08:57.052Z,45.27
2019-01-25T04:11:46.008Z,45.43
2019-01-25T04:14:34.920Z,41.23
2019-01-25T04:17:23.729Z,43.77
2019-01-25T04:20:33.485Z,41.37
2019-01-25T04:23:22.320Z,44.87
2019-01-25T04:26:11.139Z,41.87
2019-01-25T04:28:59.991Z,44.03
2019-01-25T04:31:48.838Z,41.07
2019-01-25T04:34:37.681Z,40.83
2019-01-25T04:37:26.509Z,41.87
2019-01-25T04:40:36.282Z,48.13
2019-01-25T04:43:18.041Z,41.13
2019-01-25T04:46:07.001Z,42.93
2019-01-25T04:48:55.814Z,45.23
2019-01-25T04:51:44.650Z,45.27
2019-01-25T04:54:33.520Z,42.90
2019-01-25T04:57:22.350Z,43.67
2019-01-25T05:00:32.103Z,39.83
2019-01-25T05:03:14.379Z,46.60
2019-01-25T05:06:03.293Z,43.03
2019-01-25T05:08:52.122Z,47.07
2019-01-25T05:11:33.779Z,44.53
2019-01-25T05:14:22.614Z,40.67
2019-01-25T05:17:11.459Z,39.20
2019-01-25T05:20:00.393Z,47.67
2019-01-25T05:23:10.143Z,46.03
2019-01-25T05:25:58.934Z,46.87
2019-01-25T05:28:47.828Z,42.13
2019-01-25T05:31:36.700Z,43.93
2019-01-25T05:34:25.547Z,43.10
2019-01-25T05:37:14.426Z,42.77
2019-01-25T05:40:03.511Z,43.03
2019-01-25T05:42:52.472Z,42.97
2019-01-25T05:46:00.658Z,44.27
2019-01-25T05:48:49.462Z,46.03
2019-01-25T05:51:38.318Z,40.73
2019-01-25T05:54:27.128Z,43.77
2019-01-25T05:57:15.969Z,49.10
2019-01-25T06:00:44.730Z,46.10
2019-01-25T06:03:33.572Z,42.60
2019-01-25T06:06:14.893Z,44.67
2019-01-25T06:12:18.993Z,39.87
2019-01-25T06:15:28.710Z,41.37
2019-01-25T06:18:17.552Z,41.00
2019-01-25T06:21:06.472Z,40.10
2019-01-25T06:23:55.526Z,43.47
2019-01-25T06:27:05.246Z,41.10
2019-01-25T06:29:54.184Z,41.63
2019-01-25T06:32:43.075Z,40.83
2019-01-25T06:35:31.913Z,46.57
2019-01-25T06:38:01.408Z,43.43
2019-01-25T06:40:50.251Z,49.60
2019-01-25T06:43:39.056Z,48.03
2019-01-25T06:46:27.974Z,45.93
2019-01-25T06:49:16.826Z,47.53
2019-01-25T06:52:06.002Z,52.60
2019-01-25T06:54:56.536Z,50.07
2019-01-25T07:01:03.803Z,52.23
2019-01-25T07:03:52.676Z,47.23
2019-01-25T07:06:41.506Z,53.37
2019-01-25T07:09:30.432Z,45.20
2019-01-25T07:12:19.276Z,47.97
2019-01-25T07:15:29.008Z,43.30
2019-01-25T07:18:17.863Z,52.30
2019-01-25T07:21:06.742Z,52.63
2019-01-25T07:23:55.658Z,49.60
2019-01-25T07:26:44.465Z,48.93
2019-01-25T07:29:33.382Z,48.27
2019-01-25T07:32:22.235Z,48.47
2019-01-25T07:35:11.552Z,48.87
2019-01-25T07:38:00.407Z,43.73
2019-01-25T07:40:49.348Z,49.47
2019-01-25T07:43:38.224Z,55.67
2019-01-25T07:46:27.009Z,49.93
2019-01-25T07:49:16.033Z,52.10
2019-01-25T07:52:05.313Z,45.33
2019-01-25T07:54:54.209Z,49.43
2019-01-25T08:01:11.528Z,51.60
2019-01-25T08:04:00.472Z,47.30
2019-01-25T08:06:49.481Z,47.40
2019-01-25T08:09:38.356Z,50.70
2019-01-25T08:12:27.198Z,55.20
2019-01-25T08:15:35.336Z,52.37
2019-01-25T08:18:24.178Z,48.17
2019-01-25T08:20:53.644Z,52.97
2019-01-25T08:23:42.480Z,52.43
2019-01-25T08:26:31.390Z,46.90
2019-01-25T08:29:27.708Z,57.93
2019-01-25T08:32:10.933Z,55.27
2019-01-25T08:34:40.497Z,51.20
2019-01-25T08:37:29.350Z,51.90
2019-01-25T08:40:18.742Z,55.00
2019-01-25T08:43:08.925Z,58.23
2019-01-25T08:45:58.345Z,49.53
2019-01-25T08:48:47.224Z,54.90
2019-01-25T08:51:36.595Z,57.53
2019-01-25T08:54:25.749Z,51.40
2019-01-25T08:57:08.541Z,46.53
2019-01-25T08:59:57.516Z,50.77
2019-01-25T09:02:46.384Z,59.40
2019-01-25T09:05:35.241Z,50.47
2019-01-25T09:08:24.170Z,53.77
2019-01-25T09:11:13.096Z,48.70
2019-01-25T09:13:42.558Z,52.87
2019-01-25T09:16:31.387Z,55.03
2019-01-25T09:19:00.928Z,50.27
2019-01-25T09:21:49.794Z,50.27
2019-01-25T09:24:38.672Z,52.50
2019-01-25T09:27:27.584Z,53.70
2019-01-25T09:30:38.154Z,53.97
2019-01-25T09:33:27.027Z,49.00
2019-01-25T09:35:56.555Z,59.30
2019-01-25T09:38:26.144Z,73.63
2019-01-25T09:40:55.803Z,58.30
2019-01-25T09:43:25.278Z,65.83
2019-01-25T09:45:54.869Z,58.50
2019-01-25T09:48:24.358Z,64.80
2019-01-25T09:51:13.243Z,61.37
2019-01-25T09:54:02.058Z,53.13
2019-01-25T09:56:50.894Z,61.30
2019-01-25T09:59:39.711Z,54.60
2019-01-25T10:02:28.563Z,60.10
2019-01-25T10:05:17.483Z,51.60
2019-01-25T10:08:06.404Z,49.37
2019-01-25T10:10:48.081Z,46.40
2019-01-25T10:13:36.929Z,55.83
2019-01-25T10:16:25.770Z,52.03
2019-01-25T10:19:14.626Z,53.60
2019-01-25T10:22:03.492Z,65.67
2019-01-25T10:24:52.334Z,61.10
2019-01-25T10:27:41.290Z,63.27
2019-01-25T10:30:30.349Z,63.77
2019-01-25T10:33:19.136Z,50.03
2019-01-25T10:36:08.065Z,59.30
2019-01-25T10:38:56.885Z,61.63
2019-01-25T10:41:26.375Z,57.27
2019-01-25T10:44:15.191Z,61.43
2019-01-25T10:47:04.290Z,60.13
2019-01-25T10:49:53.103Z,58.23
2019-01-25T10:52:42.038Z,56.53
2019-01-25T10:55:31.004Z,56.63
2019-01-25T10:58:19.562Z,60.30
2019-01-25T11:01:08.385Z,61.93
2019-01-25T11:03:57.294Z,54.07
2019-01-25T11:06:46.165Z,59.87
2019-01-25T11:09:37.999Z,59.80
2019-01-25T11:12:16.205Z,50.50
2019-01-25T11:15:25.980Z,55.07
2019-01-25T11:18:14.784Z,53.07
2019-01-25T11:21:03.643Z,55.50
2019-01-25T11:23:52.494Z,49.23
2019-01-25T11:26:41.367Z,59.03
2019-01-25T11:29:30.213Z,48.53
2019-01-25T11:32:19.158Z,53.83
2019-01-25T11:35:08.157Z,53.87
2019-01-25T11:37:57.119Z,47.27
2019-01-25T11:40:46.088Z,51.00
2019-01-25T11:43:34.944Z,45.43
2019-01-25T11:46:23.834Z,49.63
2019-01-25T11:48:53.338Z,46.07
2019-01-25T11:51:42.199Z,46.30
2019-01-25T11:54:38.052Z,43.00
2019-01-25T11:57:26.908Z,48.43
2019-01-25T12:00:36.110Z,47.40
2019-01-25T12:03:25.037Z,43.00
2019-01-25T12:06:13.852Z,48.57
2019-01-25T12:09:02.960Z,39.97
2019-01-25T12:11:51.878Z,44.23
2019-01-25T12:14:40.720Z,41.20
2019-01-25T12:17:29.695Z,43.53
2019-01-25T12:20:39.492Z,40.90
2019-01-25T12:23:28.309Z,35.80
2019-01-25T12:26:17.243Z,36.63
2019-01-25T12:29:06.205Z,36.27
2019-01-25T12:31:55.051Z,34.57
2019-01-25T12:34:43.859Z,37.03
2019-01-25T12:37:34.421Z,40.43
2019-01-25T12:40:23.268Z,37.23
2019-01-25T12:43:12.150Z,36.50
2019-01-25T12:45:41.729Z,33.83
2019-01-25T12:48:30.533Z,34.20
2019-01-25T12:51:19.957Z,35.80
2019-01-25T12:54:08.816Z,29.93
2019-01-25T12:56:57.653Z,29.87
2019-01-25T12:59:46.464Z,31.37
2019-01-25T13:02:35.525Z,27.80
2019-01-25T13:05:24.594Z,23.13
2019-01-25T13:08:13.460Z,28.07
2019-01-25T13:10:54.718Z,29.70
2019-01-25T13:13:43.572Z,28.60
2019-01-25T13:16:32.453Z,25.73
2019-01-25T13:19:21.353Z,29.57
2019-01-25T13:22:10.244Z,28.53
2019-01-25T13:24:59.105Z,27.30
2019-01-25T13:27:48.085Z,21.53
2019-01-25T13:30:37.006Z,25.37
2019-01-25T13:33:25.887Z,22.93
2019-01-25T13:36:14.917Z,22.67
2019-01-25T13:42:18.644Z,23.27
2019-01-25T13:45:28.396Z,25.23
2019-01-25T13:48:17.283Z,20.83
2019-01-25T13:51:06.189Z,21.77
2019-01-25T13:53:55.018Z,21.77
2019-01-25T13:56:43.865Z,24.00
2019-01-25T13:59:32.810Z,21.17
2019-01-25T14:02:21.672Z,22.67
2019-01-25T14:05:10.614Z,24.20
2019-01-25T14:07:52.453Z,22.07
2019-01-25T14:10:41.355Z,21.73
2019-01-25T14:13:34.183Z,28.23
2019-01-25T14:16:20.824Z,30.97
2019-01-25T14:19:09.667Z,27.83
2019-01-25T14:21:58.484Z,23.17
2019-01-25T14:24:47.352Z,24.90
2019-01-25T14:27:36.204Z,25.63
2019-01-25T14:30:45.950Z,23.27
2019-01-25T14:33:34.767Z,23.83
2019-01-25T14:36:23.664Z,20.77
2019-01-25T14:39:12.509Z,21.63
2019-01-25T14:42:01.366Z,22.43
2019-01-25T14:44:50.223Z,24.47
2019-01-25T14:47:39.110Z,26.63
2019-01-25T14:50:48.873Z,23.87
2019-01-25T14:53:37.711Z,23.83
2019-01-25T14:56:26.605Z,25.90
2019-01-25T14:59:08.583Z,24.87
2019-01-25T15:01:57.434Z,23.00
2019-01-25T15:04:46.281Z,23.87
2019-01-25T15:07:35.202Z,24.77
2019-01-25T15:10:44.930Z,25.37
2019-01-25T15:13:33.835Z,24.10
2019-01-25T15:16:22.738Z,28.93
2019-01-25T15:19:11.637Z,25.10
2019-01-25T15:22:00.555Z,22.60
2019-01-25T15:24:49.493Z,26.67
2019-01-25T15:27:38.412Z,26.53
2019-01-25T15:30:48.190Z,24.87
2019-01-25T15:33:37.066Z,28.63
2019-01-25T15:36:25.861Z,27.03
2019-01-25T15:39:08.023Z,25.27
2019-01-25T15:41:56.944Z,23.30
2019-01-25T15:44:45.856Z,24.40
2019-01-25T15:47:34.753Z,28.43
2019-01-25T15:50:42.908Z,28.23
2019-01-25T15:53:31.762Z,26.70
2019-01-25T15:56:20.610Z,23.30
2019-01-25T15:59:09.456Z,21.73
2019-01-25T16:01:58.394Z,18.97
2019-01-25T16:04:47.240Z,17.93
2019-01-25T16:07:36.052Z,17.77
2019-01-25T16:10:19.076Z,12.73
2019-01-25T16:13:07.962Z,13.27
2019-01-25T16:15:56.878Z,10.50
2019-01-25T16:18:45.348Z,11.87
2019-01-25T16:21:34.308Z,10.17
2019-01-25T16:24:44.055Z,9.53
2019-01-25T16:27:32.872Z,8.10
2019-01-25T16:30:41.108Z,8.00
2019-01-25T16:33:29.962Z,9.47
2019-01-25T16:36:18.829Z,8.07
2019-01-25T16:38:48.435Z,7.10
2019-01-25T16:41:37.285Z,7.13
2019-01-25T16:44:26.201Z,7.93
2019-01-25T16:47:15.025Z,9.30
2019-01-25T16:53:18.949Z,6.00
2019-01-25T16:55:48.478Z,7.63
2019-01-25T16:58:37.314Z,7.60
2019-01-25T17:01:26.168Z,6.40
2019-01-25T17:04:15.003Z,7.63
2019-01-25T17:07:03.853Z,7.73
2019-01-25T17:09:52.728Z,8.00
2019-01-25T17:12:34.858Z,7.63
2019-01-25T17:15:23.867Z,5.60
2019-01-25T17:18:12.776Z,8.23
2019-01-25T17:21:01.665Z,6.73
2019-01-25T17:23:50.593Z,8.57
2019-01-25T17:26:39.567Z,8.37
2019-01-25T17:29:28.422Z,8.97
2019-01-25T17:32:17.345Z,9.33
2019-01-25T17:34:46.912Z,7.17
2019-01-25T17:37:35.788Z,7.97
2019-01-25T17:40:46.822Z,7.40
2019-01-25T17:43:34.680Z,7.10
2019-01-25T17:46:23.539Z,7.47
2019-01-25T17:49:12.354Z,10.27
2019-01-25T17:52:01.232Z,9.13
2019-01-25T17:54:50.236Z,10.03
2019-01-25T17:57:39.141Z,10.17
2019-01-25T18:03:44.819Z,9.43
2019-01-25T18:06:33.728Z,10.53
2019-01-25T18:09:22.618Z,8.70
2019-01-25T18:12:04.291Z,11.27
2019-01-25T18:14:53.205Z,12.23
2019-01-25T18:17:42.142Z,13.90
2019-01-25T18:20:31.031Z,10.67
2019-01-25T18:23:20.027Z,9.47
2019-01-25T18:26:08.939Z,14.17
2019-01-25T18:28:57.847Z,12.87
2019-01-25T18:31:46.654Z,11.73
2019-01-25T18:34:35.631Z,13.93
2019-01-25T18:37:24.513Z,11.77
2019-01-25T18:40:13.511Z,13.67
2019-01-25T18:43:02.413Z,13.07
2019-01-25T18:45:51.301Z,13.33
2019-01-25T18:48:40.153Z,12.67
2019-01-25T18:51:29.038Z,13.70
2019-01-25T18:54:17.838Z,12.53
2019-01-25T18:57:06.437Z,15.33
2019-01-25T18:59:55.314Z,13.03
2019-01-25T19:02:24.835Z,12.03
2019-01-25T19:05:13.868Z,14.03
2019-01-25T19:08:02.791Z,13.80
2019-01-25T19:10:51.760Z,13.20
2019-01-25T19:13:33.534Z,10.90
2019-01-25T19:16:22.482Z,12.63
2019-01-25T19:19:11.461Z,12.73
2019-01-25T19:22:00.234Z,11.37
2019-01-25T19:24:49.168Z,13.90
2019-01-25T19:27:38.001Z,10.63
2019-01-25T19:30:47.783Z,10.97
2019-01-25T19:33:36.720Z,11.50
2019-01-25T19:36:25.589Z,11.90
2019-01-25T19:39:14.493Z,11.93
2019-01-25T19:42:03.439Z,13.53
2019-01-25T19:44:52.334Z,10.13
2019-01-25T19:47:41.266Z,10.50
2019-01-25T19:50:30.195Z,11.60
2019-01-25T19:53:19.152Z,13.97
2019-01-25T19:56:08.135Z,13.97
2019-01-25T19:58:57.095Z,10.90
2019-01-25T20:01:45.905Z,9.20
2019-01-25T20:04:34.752Z,11.23
2019-01-25T20:07:23.660Z,11.30
2019-01-25T20:10:13.019Z,11.97
2019-01-25T20:12:54.729Z,11.63
2019-01-25T20:15:43.750Z,11.13
2019-01-25T20:18:32.596Z,13.57
2019-01-25T20:21:21.428Z,10.40
2019-01-25T20:24:10.351Z,10.93
2019-01-25T20:26:59.154Z,11.50
2019-01-25T20:29:48.096Z,9.20
2019-01-25T20:32:36.902Z,11.13
2019-01-25T20:35:46.680Z,11.13
2019-01-25T20:38:35.576Z,9.47
2019-01-25T20:41:24.470Z,9.83
2019-01-25T20:44:13.408Z,10.20
2019-01-25T20:47:02.318Z,10.13
2019-01-25T20:49:51.143Z,10.40
2019-01-25T20:52:40.052Z,10.43
2019-01-25T20:55:29.061Z,10.30
2019-01-25T20:58:17.938Z,9.20
2019-01-25T21:01:06.839Z,11.57
2019-01-25T21:03:55.789Z,9.37
2019-01-25T21:06:44.667Z,11.17
2019-01-25T21:09:33.559Z,7.97
2019-01-25T21:12:22.495Z,7.50
2019-01-25T21:15:05.414Z,9.97
2019-01-25T21:17:54.593Z,8.43
2019-01-25T21:21:04.388Z,9.93
2019-01-25T21:23:53.345Z,8.73
2019-01-25T21:26:42.195Z,8.37
2019-01-25T21:29:31.147Z,9.43
2019-01-25T21:32:20.008Z,9.50
2019-01-25T21:35:29.757Z,9.33
2019-01-25T21:38:18.642Z,7.77
2019-01-25T21:41:07.564Z,6.53
2019-01-25T21:43:56.382Z,7.57
2019-01-25T21:46:45.297Z,7.63
2019-01-25T21:49:34.126Z,7.13
2019-01-25T21:52:23.052Z,7.07
2019-01-25T21:55:32.807Z,6.97
2019-01-25T21:58:21.648Z,7.47
2019-01-25T22:01:10.715Z,6.50
2019-01-25T22:03:59.555Z,6.17
2019-01-25T22:06:48.469Z,4.87
2019-01-25T22:09:37.319Z,6.50
2019-01-25T22:12:26.242Z,7.17
2019-01-25T22:15:08.915Z,5.30
2019-01-25T22:17:57.819Z,6.00
2019-01-25T22:20:46.622Z,8.07
2019-01-25T22:23:35.549Z,5.57
2019-01-25T22:26:24.352Z,6.77
2019-01-25T22:29:13.337Z,6.20
2019-01-25T22:32:02.145Z,5.87
2019-01-25T22:34:51.070Z,5.73
2019-01-25T22:37:39.944Z,5.77
2019-01-25T22:43:44.837Z,5.80
2019-01-25T22:46:33.717Z,5.43
2019-01-25T22:49:22.643Z,7.07
2019-01-25T22:52:11.513Z,7.00
2019-01-25T22:55:00.424Z,4.93
2019-01-25T22:57:49.411Z,5.30
2019-01-25T23:04:29.450Z,5.70
2019-01-25T23:07:18.327Z,4.53
2019-01-25T23:10:28.089Z,4.93
2019-01-25T23:13:09.842Z,5.10
2019-01-25T23:15:49.739Z,4.57
2019-01-25T23:18:38.597Z,5.17
2019-01-25T23:21:27.502Z,4.37
2019-01-25T23:24:16.321Z,5.33
2019-01-25T23:27:05.232Z,5.23
2019-01-25T23:29:54.126Z,5.50
2019-01-25T23:32:43.001Z,5.50
2019-01-25T23:35:31.927Z,5.33
2019-01-25T23:38:20.786Z,5.13
2019-01-25T23:40:50.278Z,4.67
2019-01-25T23:43:39.148Z,4.60
2019-01-25T23:46:28.081Z,4.50
2019-01-25T23:49:16.918Z,5.03
2019-01-25T23:52:05.845Z,5.13
2019-01-25T23:54:54.734Z,3.63
2019-01-25T23:57:43.693Z,4.50
